Weather observations for the past three days for
Decorah
Imperial (Metric)
Date Time (cdt) Wind (mph) Vis. (mi.) Weather Sky Cond. Temperature (ºF) Relative Humidity Wind Chill (°F) Heat Index (°F) Pressure Precipitation (in)
Air Dwpt 6 hour altimeter (in) sea level (mb) 1 hr 3 hr 6 hr
Max. Min.
04 15:15 NW 15 G 30 10.00 Fair CLR 69.8 33.8 27% 29.51 0.0
04 14:55 NW 17 G 31 10.00 Fair CLR 71.6 32 23% 29.5 0.0
04 14:35 NW 15 G 29 10.00 Fair CLR 73.4 35.6 25% 29.49 0.0
04 14:15 W 13 G 25 10.00 Fair CLR 73.4 39.2 29% 29.48 0.0
04 13:55 Vrbl 7 G 21 10.00 A Few Clouds FEW095 73.4 42.8 33% 29.47 0.0
04 13:35 W 15 G 23 10.00 Fair CLR 73.4 42.8 33% 29.48 0.0
04 13:15 NW 12 G 25 10.00 Fair CLR 73.4 42.8 33% 29.47 0.0
04 12:55 W 12 G 24 10.00 Fair CLR 73.4 41 31% 29.47 0.0
04 12:35 W 10 G 21 10.00 Fair CLR 75.2 41 29% 77 29.47 0.0
04 12:15 W 17 G 25 10.00 Fair CLR 75.2 39.2 27% 77 29.47 0.0
04 11:55 W 13 G 26 10.00 Fair CLR 75.2 39.2 27% 77 29.47 0.0
04 11:35 W 14 G 28 10.00 Fair CLR 75.2 39.2 27% 77 29.47 0.0
04 11:15 W 16 G 28 10.00 Fair CLR 73.4 39.2 29% 29.47 0.0
04 10:55 W 12 G 22 10.00 Fair CLR 73.4 39.2 29% 29.48 0.0
04 10:35 SW 8 G 24 10.00 Partly Cloudy SCT100 71.6 41 33% 29.47 0.0
04 10:15 SW 8 G 26 10.00 Partly Cloudy SCT100 71.6 39.2 31% 29.48 0.0
04 09:55 SW 15 G 31 10.00 Fair CLR 69.8 39.2 33% 29.48 0.0
04 09:35 SW 14 G 28 10.00 Fair CLR 69.8 39.2 33% 29.48 0.0
04 09:15 SW 10 G 17 10.00 Fair CLR 68 39.2 35% 29.49 0.0
04 08:55 SW 13 G 21 10.00 Fair CLR 66.2 39.2 37% 29.5 0.0
04 08:35 SW 8 G 23 10.00 Fair CLR 64.4 37.4 37% 29.5 0.0
04 08:15 SW 12 G 22 10.00 Fair CLR 60.8 37.4 42% 29.5 0.0
04 07:55 SW 9 G 18 10.00 Fair CLR 59 35.6 42% 29.51 0.0
04 07:35 SW 8 G 20 10.00 Fair CLR 59 35.6 42% 29.52 0.0
04 06:55 Vrbl 7 G 15 10.00 Fair CLR 55.4 33.8 44% 29.52 0.0
04 06:35 Vrbl 7 10.00 Fair CLR 53.6 33.8 47% 29.53 0.0
04 06:15 SW 8 10.00 Fair CLR 53.6 33.8 47% 29.53 0.0
04 05:55 SW 8 10.00 Fair CLR 51.8 33.8 50% 29.53 0.0
04 05:35 SW 8 10.00 A Few Clouds FEW044 FEW055 50 33.8 54% 47 29.54 0.0
04 05:15 S 7 10.00 Mostly Cloudy FEW042 BKN055 BKN065 50 33.8 54% 48 29.54 0.0
04 04:55 S 5 10.00 Mostly Cloudy SCT050 BKN060 51.8 33.8 50% 29.55 0.0
04 04:15 S 6 10.00 Mostly Cloudy BKN060 51.8 32 47% 29.57 0.0
04 03:55 SW 7 10.00 Mostly Cloudy BKN060 51.8 32 47% 29.58 0.0
04 03:35 SW 7 10.00 Mostly Cloudy BKN055 BKN065 51.8 32 47% 29.58 0.0
04 03:15 SW 7 10.00 Overcast FEW045 BKN055 OVC065 51.8 32 47% 29.59 0.0
04 02:55 Vrbl 5 10.00 Mostly Cloudy FEW042 BKN055 BKN065 51.8 32 47% 29.59 0.0
04 02:35 SW 6 10.00 Mostly Cloudy FEW047 BKN060 53.6 32 44% 29.6 0.0
04 02:15 SW 7 10.00 Mostly Cloudy FEW044 BKN055 BKN065 53.6 32 44% 29.61 0.0
04 01:55 SW 3 10.00 Overcast SCT050 OVC060 53.6 32 44% 29.62 0.0
04 01:35 S 3 10.00 Mostly Cloudy SCT050 BKN060 53.6 32 44% 29.62 0.0
04 01:15 Calm 10.00 Partly Cloudy FEW046 SCT055 53.6 32 44% 29.63 0.0
04 00:55 S 5 10.00 Partly Cloudy FEW049 SCT055 55.4 32 41% 29.64 0.0
04 00:35 Calm 10.00 Mostly Cloudy BKN055 55.4 32 41% 29.65 0.0
04 00:15 SW 3 10.00 Mostly Cloudy BKN055 55.4 32 41% 29.65 0.0
03 23:55 SW 3 10.00 Mostly Cloudy FEW041 BKN050 BKN055 57.2 32 39% 29.66 0.0
03 23:35 SW 3 10.00 Mostly Cloudy FEW037 SCT042 BKN050 57.2 32 39% 29.67 0.0
03 23:15 SW 3 10.00 Partly Cloudy FEW040 FEW048 SCT055 57.2 32 39% 29.68 0.0
03 22:55 Calm 10.00 Partly Cloudy SCT050 SCT060 59 32 36% 29.69 0.0
03 22:35 Calm 10.00 Partly Cloudy SCT050 SCT060 59 32 36% 29.69 0.0
03 22:15 Calm 10.00 A Few Clouds FEW055 59 32 36% 29.69 0.0
03 21:55 Calm 10.00 A Few Clouds FEW049 FEW055 60.8 32 34% 29.69 0.0
03 21:35 Calm 10.00 A Few Clouds FEW050 62.6 30.2 30% 29.69 0.0
03 21:15 Calm 10.00 Partly Cloudy SCT050 62.6 30.2 30% 29.68 0.0
03 20:55 NW 5 10.00 Partly Cloudy SCT050 64.4 32 30% 29.68 0.0
03 20:35 Vrbl 5 10.00 Fair CLR 64.4 32 30% 29.68 0.0
03 20:15 W 3 10.00 Fair CLR 66.2 30.2 26% 29.67 0.0
03 19:55 Calm 10.00 Fair CLR 68 30.2 24% 29.68 0.0
03 19:35 NW 6 G 14 10.00 Fair CLR 68 30.2 24% 29.67 0.0
03 19:15 NW 8 G 14 10.00 Fair CLR 69.8 30.2 23% 29.67 0.0
03 18:55 NW 10 G 18 10.00 Fair CLR 69.8 30.2 23% 29.67 0.0
03 18:35 W 9 G 16 10.00 Fair CLR 71.6 32 23% 29.66 0.0
03 18:15 NW 13 G 20 10.00 Fair CLR 71.6 32 23% 29.66 0.0
03 17:55 NW 8 G 17 10.00 Fair CLR 71.6 32 23% 29.66 0.0
03 17:35 NW 8 G 23 10.00 Fair CLR 71.6 32 23% 29.66 0.0
03 17:15 NW 12 G 21 10.00 Fair CLR 71.6 32 23% 29.66 0.0
03 16:55 NW 14 G 20 10.00 Fair CLR 71.6 32 23% 29.66 0.0
03 16:35 NW 12 G 21 10.00 Fair CLR 71.6 32 23% 29.66 0.0
03 16:15 NW 16 10.00 Fair CLR 71.6 33.8 25% 29.66 0.0
03 15:55 NW 8 G 23 10.00 Fair CLR 71.6 32 23% 29.66 0.0
03 15:35 N 15 G 25 10.00 Fair CLR 71.6 33.8 25% 29.67 0.0
03 15:15 NW 14 G 22 10.00 NULL NULL 71.6 35.6 27% 29.67 0.0
03 14:55 NW 12 G 20 10.00 Fair CLR 71.6 37.4 29% 29.67 0.0
03 14:35 NW 17 10.00 Fair CLR 71.6 37.4 29% 29.67 0.0
03 14:15 NW 10 G 20 10.00 Fair CLR 71.6 37.4 29% 29.67 0.0
03 13:55 NW 17 G 25 10.00 Fair CLR 71.6 39.2 31% 29.67 0.0
03 13:35 NW 13 G 20 10.00 Fair CLR 69.8 39.2 33% 29.68 0.0
03 13:15 NW 8 G 22 10.00 Fair CLR 69.8 39.2 33% 29.68 0.0
03 12:55 NW 9 10.00 Fair CLR 68 39.2 35% 29.69 0.0
03 12:35 Vrbl 5 G 13 10.00 Fair CLR 66.2 39.2 37% 29.7 0.0
03 12:15 Vrbl 5 G 12 10.00 Fair CLR 64.4 37.4 37% 29.7 0.0
03 11:55 W 8 10.00 Fair CLR 64.4 37.4 37% 29.7 0.0
03 11:35 SW 9 G 16 10.00 Fair CLR 62.6 37.4 39% 29.71 0.0
03 11:15 SW 9 G 16 10.00 Fair CLR 62.6 35.6 37% 29.71 0.0
03 10:55 SW 9 G 16 10.00 Fair CLR 60.8 35.6 39% 29.72 0.0
03 10:35 Vrbl 8 G 18 10.00 Fair CLR 60.8 35.6 39% 29.72 0.0
03 10:15 SW 8 G 18 10.00 Fair CLR 59 35.6 42% 29.72 0.0
03 09:55 SW 10 G 22 10.00 Fair CLR 59 35.6 42% 29.72 0.0
03 09:35 SW 12 G 22 10.00 Fair CLR 57.2 35.6 44% 29.72 0.0
03 09:15 SW 14 G 24 10.00 Fair CLR 57.2 33.8 41% 29.73 0.0
03 08:55 S 14 G 28 10.00 Fair CLR 55.4 33.8 44% 29.74 0.0
03 08:35 S 10 G 24 10.00 Fair CLR 55.4 33.8 44% 29.74 0.0
03 08:15 S 15 G 29 10.00 A Few Clouds FEW100 55.4 33.8 44% 29.75 0.0
03 07:55 S 10 G 23 10.00 A Few Clouds FEW095 53.6 33.8 47% 29.75 0.0
03 07:35 S 13 G 23 10.00 Mostly Cloudy FEW055 FEW065 BKN095 53.6 33.8 47% 29.75 0.0
03 07:15 S 10 G 24 9.00 Mostly Cloudy FEW034 FEW060 BKN100 53.6 35.6 51% 29.75 0.0
03 06:55 SW 9 10.00 Partly Cloudy SCT110 53.6 35.6 51% 29.74 0.0
03 06:35 S 8 G 18 10.00 Partly Cloudy SCT100 SCT120 53.6 35.6 51% 29.73 0.0
03 06:15 S 13 G 29 10.00 Mostly Cloudy BKN095 53.6 35.6 51% 29.72 0.0
03 05:35 S 10 G 21 10.00 Overcast SCT075 OVC090 51.8 37.4 58% 29.76 0.0
03 05:15 S 12 G 17 10.00 Overcast BKN075 BKN090 OVC120 53.6 35.6 51% 29.79 0.0
03 04:55 SW 13 G 21 10.00 Mostly Cloudy FEW055 SCT070 BKN100 53.6 33.8 47% 29.8 0.0
03 04:35 SW 9 G 20 10.00 Overcast FEW055 SCT065 OVC110 53.6 32 44% 29.82 0.0
03 04:15 SW 13 G 22 10.00 Overcast SCT080 OVC100 53.6 32 44% 29.82 0.0
03 03:55 SW 12 G 21 10.00 NULL NULL 55.4 33.8 44% 29.82 0.0
03 03:35 SW 10 G 16 10.00 Overcast SCT060 BKN070 OVC100 53.6 32 44% 29.82 0.0
03 03:15 SW 10 G 18 10.00 Overcast BKN080 OVC100 53.6 32 44% 29.83 0.0
03 02:55 SW 10 10.00 NULL NULL 51.8 30.2 44% 29.83 0.0
03 02:35 SW 9 G 15 0.00 NULL NULL 0 0 0% 29.84 0.0
03 02:15 Vrbl 7 G 21 0.00 Mostly Cloudy FEW075 BKN090 BKN120 51.8 30.2 44% 29.85 0.0
03 01:55 Vrbl 7 G 15 10.00 Mostly Cloudy BKN090 BKN120 51.8 30.2 44% 29.85 0.0
03 01:35 SW 9 G 22 10.00 Mostly Cloudy BKN110 51.8 28.4 41% 29.85 0.0
03 01:15 SW 10 G 21 10.00 NULL NULL 51.8 28.4 41% 29.85 0.0
03 00:55 SW 12 G 22 10.00 Overcast OVC100 51.8 28.4 41% 29.86 0.0
03 00:35 SW 10 G 18 10.00 Mostly Cloudy BKN095 BKN110 51.8 28.4 41% 29.87 0.0
03 00:15 SW 13 G 20 10.00 Partly Cloudy FEW055 SCT110 51.8 28.4 41% 29.87 0.0
02 23:55 Vrbl 7 G 14 10.00 A Few Clouds FEW049 FEW060 50 28.4 43% 48 29.87 0.0
02 23:15 S 7 0.00 NULL NULL 50 28.4 43% 48 29.88 0.0
02 22:55 Vrbl 7 G 14 10.00 Mostly Cloudy FEW047 FEW055 BKN100 50 28.4 43% 48 29.89 0.0
02 22:35 S 8 G 14 10.00 Overcast OVC100 51.8 28.4 41% 29.9 0.0
02 22:15 S 7 10.00 Mostly Cloudy BKN110 51.8 28.4 41% 29.9 0.0
02 21:55 S 6 G 13 10.00 Mostly Cloudy FEW047 FEW055 BKN120 53.6 28.4 38% 29.91 0.0
02 21:35 Vrbl 7 10.00 Mostly Cloudy FEW040 SCT050 BKN120 53.6 28.4 38% 29.91 0.0
02 21:15 S 7 10.00 Mostly Cloudy SCT039 BKN045 BKN050 53.6 28.4 38% 29.91 0.0
02 20:55 Vrbl 7 10.00 Mostly Cloudy FEW037 SCT048 BKN055 55.4 28.4 36% 29.91 0.0
02 20:35 Calm 10.00 A Few Clouds FEW120 55.4 30.2 38% 29.91 0.0
02 20:15 SW 5 10.00 Fair CLR 57.2 28.4 33% 29.91 0.0
02 19:55 Vrbl 5 10.00 Fair CLR 57.2 26.6 31% 29.91 0.0
02 19:35 Vrbl 5 10.00 Fair CLR 59 26.6 29% 29.91 0.0
02 19:15 Vrbl 7 G 13 10.00 Fair CLR 59 26.6 29% 29.92 0.0
02 18:55 Vrbl 8 G 14 10.00 Fair CLR 60.8 26.6 27% 29.92 0.0
02 18:35 SW 8 G 15 10.00 Fair CLR 60.8 26.6 27% 29.93 0.0
02 18:15 W 8 G 16 10.00 Fair CLR 60.8 24.8 25% 29.93 0.0
02 17:55 Vrbl 6 G 16 10.00 Fair CLR 60.8 24.8 25% 29.94 0.0
02 17:35 W 9 G 16 10.00 Fair CLR 60.8 24.8 25% 29.94 0.0
02 17:15 Vrbl 7 G 16 10.00 Partly Cloudy SCT080 60.8 24.8 25% 29.95 0.0
02 16:55 SW 8 G 14 10.00 Partly Cloudy SCT085 60.8 23 23% 29.96 0.0
02 16:35 Vrbl 6 G 16 10.00 Fair CLR 60.8 24.8 25% 29.96 0.0
02 16:15 Vrbl 6 G 17 10.00 Fair CLR 60.8 24.8 25% 29.97 0.0
02 15:55 Vrbl 7 G 23 10.00 Fair CLR 60.8 24.8 25% 29.98 0.0
02 15:35 W 8 G 17 10.00 Fair CLR 59 24.8 27% 29.99 0.0
02 15:15 Vrbl 3 G 18 10.00 A Few Clouds FEW080 60.8 24.8 25% 30 0.0
02 14:55 W 9 G 21 10.00 NULL NULL 59 24.8 27% 30 0.0
02 14:35 W 10 G 20 10.00 A Few Clouds FEW080 59 24.8 27% 30.01 0.0
02 14:15 NW 9 G 17 10.00 A Few Clouds FEW075 59 24.8 27% 30.02 0.0
02 13:55 Vrbl 6 G 16 10.00 Partly Cloudy SCT075 59 24.8 27% 30.03 0.0
02 13:35 NW 9 G 16 10.00 A Few Clouds FEW075 57.2 24.8 29% 30.04 0.0
02 13:15 Vrbl 7 G 14 10.00 Partly Cloudy SCT075 57.2 23 27% 30.04 0.0
02 12:55 W 9 G 17 10.00 Partly Cloudy SCT075 55.4 23 28% 30.05 0.0
02 12:35 NW 9 G 15 10.00 Mostly Cloudy BKN070 57.2 24.8 29% 30.06 0.0
02 12:15 NW 8 G 16 10.00 Mostly Cloudy BKN070 55.4 23 28% 30.06 0.0
02 11:55 W 8 G 17 10.00 Partly Cloudy SCT070 55.4 23 28% 30.07 0.0
02 11:35 NW 9 G 20 10.00 Fair CLR 53.6 23 30% 30.07 0.0
02 11:15 Vrbl 6 G 17 10.00 Fair CLR 55.4 23 28% 30.08 0.0
02 10:55 Vrbl 6 G 14 10.00 Fair CLR 53.6 23 30% 30.08 0.0
02 10:35 NW 8 G 17 10.00 Fair CLR 53.6 24.8 33% 30.09 0.0
02 10:15 Vrbl 5 G 16 10.00 Fair CLR 51.8 23 32% 30.09 0.0
02 09:55 NW 12 10.00 Fair CLR 51.8 23 32% 30.09 0.0
02 09:35 W 8 G 15 10.00 Fair CLR 50 24.8 37% 47 30.09 0.0
02 09:15 W 8 G 15 10.00 Fair CLR 48.2 24.8 40% 45 30.1 0.0
02 08:55 Vrbl 3 10.00 Fair CLR 46.4 26.6 46% 30.1 0.0
02 08:35 Vrbl 5 10.00 Fair CLR 44.6 26.6 49% 43 30.11 0.0
02 08:15 Vrbl 5 10.00 Fair CLR 42.8 26.6 53% 41 30.11 0.0
02 07:55 Calm 10.00 Fair CLR 41 26.6 57% 30.11 0.0
02 07:35 Calm 10.00 Fair CLR 39.2 24.8 56% 30.1 0.0
02 07:15 Calm 10.00 Fair CLR 37.4 24.8 60% 30.1 0.0
02 06:55 Calm 10.00 Fair CLR 35.6 23 60% 30.1 0.0
02 06:35 Calm 10.00 Fair CLR 35.6 23 60% 30.1 0.0
02 06:15 Calm 10.00 Fair CLR 33.8 24.8 70% 30.09 0.0
02 05:55 Calm 10.00 Fair CLR 33.8 24.8 70% 30.09 0.0
02 05:35 Calm 10.00 Fair CLR 33.8 24.8 70% 30.09 0.0
02 05:15 Calm 10.00 A Few Clouds FEW050 33.8 24.8 70% 30.09 0.0
02 04:55 Calm 10.00 Fair CLR 35.6 24.8 65% 30.09 0.0
02 04:35 Calm 10.00 Fair CLR 33.8 24.8 70% 30.09 0.0
02 04:15 Calm 10.00 Fair CLR 32 26.6 80% 30.08 0.0
02 03:55 Calm 10.00 Fair CLR 33.8 24.8 70% 30.08 0.0
02 03:35 Calm 10.00 Fair CLR 33.8 24.8 70% 30.08 0.0
02 03:15 Calm 10.00 A Few Clouds FEW045 35.6 23 60% 30.08 0.0
02 02:55 Calm 10.00 Fair CLR 33.8 24.8 70% 30.08 0.0
02 02:15 Calm 10.00 Fair CLR 33.8 24.8 70% 30.09 0.0
02 01:55 Calm 10.00 Fair CLR 35.6 24.8 65% 30.09 0.0
02 01:35 Calm 10.00 Fair CLR 35.6 24.8 65% 30.09 0.0
02 01:15 Calm 10.00 A Few Clouds FEW042 FEW048 37.4 23 56% 30.09 0.0
02 00:55 Calm 10.00 A Few Clouds FEW040 FEW047 39.2 23 52% 30.09 0.0
02 00:35 Calm 10.00 A Few Clouds FEW048 37.4 23 56% 30.09 0.0
02 00:15 Calm 10.00 A Few Clouds FEW047 37.4 23 56% 30.09 0.0
01 23:55 Calm 10.00 Fair CLR 39.2 23 52% 30.08 0.0
01 23:35 Calm 10.00 Fair CLR 39.2 23 52% 30.08 0.0
01 23:15 Calm 10.00 Fair CLR 41 23 49% 30.08 0.0
01 22:55 Calm 10.00 Fair CLR 41 23 49% 30.08 0.0
01 22:35 Calm 10.00 Fair CLR 41 23 49% 30.08 0.0
01 22:15 Calm 10.00 A Few Clouds FEW039 FEW075 42.8 23 46% 30.08 0.0
01 21:55 Calm 10.00 Partly Cloudy SCT065 SCT075 44.6 23 43% 30.08 0.0
01 21:35 N 5 10.00 Overcast OVC070 44.6 23 43% 43 30.07 0.0
01 21:15 N 5 10.00 Overcast OVC075 44.6 23 43% 43 30.07 0.0
01 20:55 N 5 10.00 Overcast OVC070 46.4 21.2 37% 45 30.06 0.0
01 20:35 NE 5 10.00 Overcast BKN070 OVC080 46.4 21.2 37% 45 30.05 0.0
01 20:15 N 6 10.00 Overcast OVC075 48.2 21.2 34% 46 30.04 0.0
01 19:55 N 10 10.00 Overcast OVC075 50 21.2 32% 46 30.04 0.0
01 19:35 N 7 10.00 Mostly Cloudy BKN080 50 21.2 32% 48 30.03 0.0
01 19:15 N 7 10.00 A Few Clouds FEW080 50 19.4 30% 48 30.03 0.0
01 18:55 N 9 10.00 A Few Clouds FEW075 50 19.4 30% 47 30.03 0.0
01 18:35 N 7 10.00 A Few Clouds FEW065 FEW080 50 19.4 30% 48 30.02 0.0
01 18:15 N 9 10.00 A Few Clouds FEW080 50 19.4 30% 47 30.02 0.0
01 17:55 N 10 10.00 Partly Cloudy SCT075 50 19.4 30% 46 30.02 0.0
01 17:35 N 9 G 15 10.00 Mostly Cloudy BKN075 51.8 19.4 28% 30.02 0.0
01 17:15 NW 8 G 15 10.00 Partly Cloudy SCT075 51.8 21.2 30% 30.02 0.0
01 16:55 N 8 G 15 10.00 Mostly Cloudy BKN070 50 21.2 32% 47 30.02 0.0
01 16:35 N 10 G 17 10.00 Mostly Cloudy BKN070 51.8 21.2 30% 30.02 0.0
01 16:15 N 12 G 18 10.00 Partly Cloudy SCT070 51.8 21.2 30% 30.02 0.0
01 15:55 Vrbl 7 G 15 10.00 Mostly Cloudy BKN070 51.8 21.2 30% 30.02 0.0
01 15:35 NW 9 G 17 10.00 Mostly Cloudy BKN065 51.8 21.2 30% 30.02 0.0
Date Time (cdt) Wind (mph) Vis. (mi.) Weather Sky Cond. Air Dwpt Max. Min. Relative Humidity Wind Chill (°F) Heat Index (°F) altimeter (in) sea level (mb) 1 hr 3 hr 6 hr
6 hour
Temperature (ºF) Pressure Precipitation (in)